Seattle, WA (98105)

3:54 PM PDT on June 24, 2017 (GMT -0700)
UW Integrated Design Lab, Bullitt Center | | Change Station
Active Advisory: Heat Advisory

Elev 404 ft 47.61 °N, 122.31 °W | Updated 14 seconds ago

Clear
Clear
83.9 °F
Feels Like 83.9 °F
N
0.0
Wind Variable Wind from WNW
Gusts 6.0 mph

Today
High -- | Low -- °F
--% Chance of Precip.
Yesterday
High -- | Low -- °F
Precip. -- in
Pressure 30.06 in
Visibility 10.0 miles
Clouds Clear
Dew Point 55.6 °F
Humidity 38%
Rainfall 0.00 in
Snow Depth Not available.
5:12 AM 9:11 PM
New Moon, 1% visible
METAR KBFI 242153Z 31010KT 10SM CLR 28/13 A3006 RMK AO2 SLP177 T02830128
Pressure 30.06 in
Visibility 10.0 miles
Clouds Clear
Dew Point 55.6 °F
Humidity 38%
Rainfall 0.00 in
Snow Depth Not available.
5:12 AM 9:11 PM
New Moon, 1% visible
METAR KBFI 242153Z 31010KT 10SM CLR 28/13 A3006 RMK AO2 SLP177 T02830128

Get Your Daily Forecast Email!

Thanks for signing up!

Be on the lookout for a verification email in your inbox.

You'll start receiving severe weather alerts in your inbox..

×

10-Day Weather Forecast

Almanac

Astronomy

Jun. 24, 2017 Rise Set
Actual Time
Civil Twilight
Nautical Twilight
Astronomical Twilight
Moon
Length of Visible Light
Length of Day
Tomorrow will be .
, % of the Moon is Illuminated

Today's Extremes

State Highs State Lows

Community

WunderPhotos

Category 6

Welcome to Category 6. This is the collective home for Weather Underground's featured writeups by Dr. Jeff Masters (right), Bob Henson (left), Chris Burt, and other regular contributors.

Nearby

Air Quality

  Air Quality AQ Index Pollutant
Not available.

Snow Depth

Station Depth Elevation

Earthquake Activity

City Distance Mag. Time & Date
Minimum magnitude displayed is 2.5.

Coastal Water Temperatures

Place Temperature

Stations

Nearby Weather Stations

Station Location Temp. Windchill Dew Point Humidity Wind Precip. Elev Updated Type
                   

Watches & Warnings

Heat Advisory
Issued: 3:30 PM PDT Jun. 24, 2017 – National Weather Service

... Heat advisory remains in effect until 9 PM PDT Sunday...

* temperature... lows Sunday morning to be quite mild, in the mid
50s to lower 60s. Highs Sunday in the 90s.

* Timing... through Sunday.

* Impacts... the elderly, youth, and those in poor health without
air conditioning are particularly vulnerable to this heat. Drink
plenty of water, wear sunscreen and dress appropriately if
outdoors or attending any community outdoor events Sunday.

Precautionary/preparedness actions...

Never leave children, pets, or the elderly unattended in a parked
hot vehicle, even with the windows down. Car interiors can reach
well over 100 degrees in just minutes.

Drownings tend to occur during hot spells in western Washington.
Area rivers and lakes are cold. Most rivers are running swift due
to Spring snowmelt. Cold water shock can disable anyone in no more
than 10 minutes. Wear a life jacket.



Www.Weather.Gov/Seattle/